Time;durP1;ratioP1;P1;durP2;ratioP2;P2;SDS_P1;SDS_P2;PMS_P1;PMS_P2;Temp;Humidity;BMP_temperature;BMP_pressure;BME280_temperature;BME280_humidity;BME280_pressure;Samples;Min_cycle;Max_cycle;Signal;HPM_P1;HPM_P2
2023/07/24 00:01:58;;;;;;;3.67;2.40;;;21.10;94.20;;;;;;4956038;28;20529;-86
2023/07/24 00:04:23;;;;;;;3.63;2.47;;;21.10;94.30;;;;;;4922744;29;20233;-86
2023/07/24 00:06:49;;;;;;;4.50;2.97;;;21.10;94.30;;;;;;4938903;29;20179;-86
2023/07/24 00:09:15;;;;;;;3.42;2.60;;;21.10;94.40;;;;;;4907360;29;20187;-86
2023/07/24 00:11:40;;;;;;;3.33;2.60;;;21.10;94.60;;;;;;4907041;29;20178;-86
2023/07/24 00:14:06;;;;;;;3.50;2.55;;;21.10;94.40;;;;;;4938768;29;20680;-86
2023/07/24 00:16:32;;;;;;;3.33;2.38;;;21.10;94.50;;;;;;4939026;29;20211;-86
2023/07/24 00:18:58;;;;;;;4.55;2.58;;;;;;;;;;4923035;29;20188;-86
2023/07/24 00:21:23;;;;;;;4.22;2.42;;;21.00;94.30;;;;;;4956035;29;20226;-87
2023/07/24 00:23:49;;;;;;;3.40;2.30;;;;;;;;;;4922918;29;20679;-87
2023/07/24 00:26:15;;;;;;;3.75;2.60;;;;;;;;;;4922727;29;20183;-86
2023/07/24 00:28:41;;;;;;;4.53;2.42;;;21.00;94.30;;;;;;4939057;29;20175;-86
2023/07/24 00:31:07;;;;;;;4.00;2.75;;;21.00;94.80;;;;;;4955667;29;20520;-86
2023/07/24 00:33:33;;;;;;;4.55;2.45;;;21.00;95.10;;;;;;4922741;29;20684;-86
2023/07/24 00:35:58;;;;;;;4.00;2.40;;;21.00;95.20;;;;;;4955830;29;20529;-86
2023/07/24 00:38:24;;;;;;;4.88;2.45;;;21.00;95.40;;;;;;4938510;29;20637;-86
2023/07/24 00:40:50;;;;;;;4.45;2.55;;;21.00;95.30;;;;;;4938160;29;20759;-86
2023/07/24 00:43:16;;;;;;;2.85;2.45;;;;;;;;;;4955325;29;20267;-86
2023/07/24 00:45:43;;;;;;;5.75;2.58;;;20.90;95.50;;;;;;4954298;29;20180;-86
2023/07/24 00:48:10;;;;;;;3.90;2.65;;;20.90;96.10;;;;;;4955574;29;20179;-86
2023/07/24 00:50:37;;;;;;;3.80;2.78;;;20.90;96.40;;;;;;4938454;29;20299;-86
2023/07/24 00:53:03;;;;;;;4.32;2.58;;;20.80;96.80;;;;;;4937999;29;20503;-86
2023/07/24 00:55:29;;;;;;;4.57;2.83;;;20.80;97.40;;;;;;4938715;29;20214;-87
2023/07/24 00:57:57;;;;;;;3.13;2.47;;;20.80;97.50;;;;;;4922657;29;20180;-85
2023/07/24 01:00:23;;;;;;;3.97;2.35;;;20.80;98.00;;;;;;4939043;29;20711;-86
2023/07/24 01:02:49;;;;;;;2.97;2.63;;;;;;;;;;4955555;29;20265;-86
2023/07/24 01:05:16;;;;;;;3.88;2.47;;;20.70;97.80;;;;;;4955272;29;20214;-87
2023/07/24 01:07:42;;;;;;;3.67;2.25;;;20.70;98.10;;;;;;4939001;29;20193;-86
2023/07/24 01:10:08;;;;;;;3.83;2.45;;;20.70;97.90;;;;;;4922405;29;20680;-87
2023/07/24 01:12:40;;;;;;;3.67;2.55;;;20.70;97.90;;;;;;4938602;29;20186;-87
2023/07/24 01:15:41;;;;;;;3.50;2.33;;;20.70;98.00;;;;;;4940206;29;20218;-87
2023/07/24 01:18:10;;;;;;;4.57;2.45;;;20.70;98.00;;;;;;4959589;29;20199;-88
2023/07/24 01:20:46;;;;;;;4.05;2.05;;;20.70;98.60;;;;;;4959616;29;20696;-87
2023/07/24 01:23:22;;;;;;;3.22;2.28;;;20.70;98.30;;;;;;4959941;29;20167;-87
2023/07/24 01:26:00;;;;;;;3.70;2.42;;;20.70;98.00;;;;;;4942794;29;20516;-86
2023/07/24 01:28:26;;;;;;;4.00;2.30;;;20.70;97.90;;;;;;4959544;29;20198;-86
2023/07/24 01:30:52;;;;;;;6.60;2.35;;;20.70;97.50;;;;;;4958890;29;20223;-86
2023/07/24 01:33:19;;;;;;;2.70;2.13;;;20.70;97.40;;;;;;4941711;29;20186;-86
2023/07/24 01:35:50;;;;;;;5.38;2.63;;;20.70;97.70;;;;;;4942097;29;20523;-87
2023/07/24 01:38:16;;;;;;;4.63;2.80;;;20.70;97.60;;;;;;4942952;29;20668;-88
2023/07/24 01:40:42;;;;;;;3.75;2.42;;;20.70;97.90;;;;;;4958826;29;20269;-87
2023/07/24 01:43:09;;;;;;;2.35;2.05;;;20.70;98.60;;;;;;4959302;29;20191;-87
2023/07/24 01:45:35;;;;;;;3.30;2.40;;;20.70;98.70;;;;;;4942665;29;20242;-88
2023/07/24 01:48:03;;;;;;;3.13;2.00;;;20.60;99.20;;;;;;4956823;28;20166;-87
2023/07/24 01:50:29;;;;;;;3.60;2.53;;;20.60;99.50;;;;;;4983024;28;20203;-87
2023/07/24 01:52:54;;;;;;;3.50;2.50;;;20.60;99.80;;;;;;4969992;28;20241;-87
2023/07/24 01:55:20;;;;;;;4.57;2.33;;;20.60;99.60;;;;;;4941812;29;20207;-87
2023/07/24 01:57:46;;;;;;;4.75;2.60;;;20.60;99.40;;;;;;4959469;29;20196;-89
2023/07/24 02:00:12;;;;;;;3.83;2.50;;;20.60;99.10;;;;;;4959212;29;20641;-87
2023/07/24 02:02:37;;;;;;;3.42;2.70;;;20.60;98.90;;;;;;4926111;29;20235;-85
2023/07/24 02:05:03;;;;;;;3.55;2.33;;;20.60;98.30;;;;;;4959309;29;20211;-87
2023/07/24 02:07:29;;;;;;;3.28;2.13;;;20.50;99.90;;;;;;4941679;29;20178;-86
2023/07/24 02:09:55;;;;;;;3.53;2.38;;;20.60;97.70;;;;;;4958653;29;20178;-87
2023/07/24 02:12:20;;;;;;;3.90;2.40;;;20.60;97.50;;;;;;4925161;29;20180;-87
2023/07/24 02:14:49;;;;;;;3.20;1.75;;;20.60;97.50;;;;;;4941499;29;20246;-87
2023/07/24 02:17:15;;;;;;;3.40;2.15;;;20.60;97.90;;;;;;4926699;29;20183;-86
2023/07/24 02:19:41;;;;;;;5.40;2.63;;;20.60;97.70;;;;;;4941859;29;20179;-84
2023/07/24 02:22:07;;;;;;;4.45;3.00;;;20.60;97.70;;;;;;4959200;29;20547;-86
2023/07/24 02:24:33;;;;;;;3.55;2.50;;;;;;;;;;4942207;29;20243;-86
2023/07/24 02:26:59;;;;;;;3.50;2.00;;;;;;;;;;4958769;28;20616;-85
2023/07/24 02:29:24;;;;;;;4.82;2.75;;;20.50;97.60;;;;;;4958612;29;20175;-87
2023/07/24 02:31:50;;;;;;;3.25;2.33;;;20.50;97.90;;;;;;4943373;29;20654;-86
2023/07/24 02:34:16;;;;;;;2.92;2.33;;;20.50;97.80;;;;;;4952368;29;20203;-86
2023/07/24 02:36:42;;;;;;;3.42;2.45;;;20.50;97.80;;;;;;4963852;29;20254;-86
2023/07/24 02:39:08;;;;;;;3.95;2.47;;;20.50;97.80;;;;;;4964633;29;20184;-86
2023/07/24 02:41:34;;;;;;;2.90;2.20;;;;;;;;;;4980992;29;20211;-85
2023/07/24 02:44:00;;;;;;;4.40;2.60;;;;;;;;;;4961990;29;20679;-85
2023/07/24 02:46:25;;;;;;;4.30;2.30;;;20.50;97.90;;;;;;4942191;29;20226;-86
2023/07/24 02:48:53;;;;;;;4.00;2.65;;;20.50;98.10;;;;;;4959688;29;20184;-85
2023/07/24 02:51:19;;;;;;;2.97;2.28;;;20.50;98.20;;;;;;4958780;29;20167;-86
2023/07/24 02:53:44;;;;;;;4.93;2.78;;;20.50;98.50;;;;;;4942026;29;20263;-86
2023/07/24 02:56:10;;;;;;;3.67;2.17;;;20.40;98.50;;;;;;4942981;29;20180;-85
2023/07/24 02:58:36;;;;;;;5.20;2.47;;;;;;;;;;4961870;29;20659;-84
2023/07/24 03:01:06;;;;;;;4.20;2.55;;;20.40;98.50;;;;;;4932951;29;20179;-85
2023/07/24 03:03:32;;;;;;;4.93;3.10;;;20.40;98.70;;;;;;4963886;29;20186;-86
2023/07/24 03:05:58;;;;;;;4.80;2.78;;;20.40;98.80;;;;;;4942567;29;20636;-86
2023/07/24 03:08:24;;;;;;;2.97;2.20;;;20.40;98.60;;;;;;4961502;29;20186;-86
2023/07/24 03:10:49;;;;;;;4.40;2.50;;;20.40;98.50;;;;;;4965286;29;20640;-87
2023/07/24 03:13:15;;;;;;;3.42;2.50;;;20.40;98.80;;;;;;4931739;29;20191;-85
2023/07/24 03:15:41;;;;;;;2.97;2.30;;;20.40;98.70;;;;;;4944223;29;20206;-87
2023/07/24 03:18:06;;;;;;;4.80;2.80;;;20.40;98.30;;;;;;4957660;29;20633;-87
2023/07/24 03:20:32;;;;;;;4.47;2.75;;;;;;;;;;4957819;29;20175;-85
2023/07/24 03:22:58;;;;;;;2.70;2.30;;;20.50;97.80;;;;;;4957319;29;20538;-85
2023/07/24 03:25:24;;;;;;;3.65;2.22;;;20.50;98.40;;;;;;4924105;29;20187;-85
2023/07/24 03:27:50;;;;;;;3.80;2.20;;;;;;;;;;4939508;29;20179;-84
2023/07/24 03:30:15;;;;;;;4.95;2.53;;;20.50;97.80;;;;;;4923719;29;20207;-87
2023/07/24 03:32:41;;;;;;;6.97;2.80;;;20.50;98.00;;;;;;4940060;29;20587;-85
2023/07/24 03:35:07;;;;;;;4.03;2.50;;;20.50;98.20;;;;;;4937252;28;20211;-84
2023/07/24 03:37:36;;;;;;;2.83;2.40;;;20.50;97.90;;;;;;4945589;29;20581;-86
2023/07/24 03:40:02;;;;;;;4.35;2.40;;;20.50;98.30;;;;;;4939035;28;21958;-86
2023/07/24 03:42:31;;;;;;;3.45;2.13;;;20.50;98.10;;;;;;4966349;28;20178;-88
2023/07/24 03:44:57;;;;;;;6.60;2.92;;;;;;;;;;4975284;28;20186;-87
2023/07/24 03:47:23;;;;;;;3.63;2.03;;;20.50;97.70;;;;;;4975804;28;20179;-87
2023/07/24 03:49:50;;;;;;;5.10;2.90;;;20.50;98.10;;;;;;4951734;29;20180;-86
2023/07/24 03:52:15;;;;;;;3.28;2.45;;;20.50;98.10;;;;;;4949560;28;20282;-86
2023/07/24 03:54:41;;;;;;;3.38;2.47;;;20.50;98.50;;;;;;4955369;28;20290;-87
2023/07/24 03:57:07;;;;;;;5.72;2.70;;;20.50;98.10;;;;;;4975405;28;20206;-89
2023/07/24 03:59:33;;;;;;;4.45;2.30;;;;;;;;;;4942364;28;20644;-88
2023/07/24 04:01:59;;;;;;;4.00;2.38;;;;;;;;;;4922992;29;20213;-87
2023/07/24 04:04:25;;;;;;;3.60;2.42;;;20.60;97.90;;;;;;4955029;28;20281;-88
2023/07/24 04:06:51;;;;;;;5.32;2.50;;;20.60;98.10;;;;;;4922666;29;20258;-89
2023/07/24 04:09:16;;;;;;;7.30;2.35;;;20.60;97.90;;;;;;4966462;28;20194;-88
2023/07/24 04:11:45;;;;;;;4.97;2.97;;;19.60;97.80;;;;;;4962237;28;20209;-88
2023/07/24 04:14:11;;;;;;;2.67;1.90;;;;;;;;;;4981482;28;20233;-87
2023/07/24 04:16:37;;;;;;;3.22;2.28;;;;;;;;;;4954950;28;20190;-87
2023/07/24 04:19:03;;;;;;;4.35;2.67;;;20.50;98.30;;;;;;4965375;29;20199;-86
2023/07/24 04:21:29;;;;;;;3.63;2.45;;;20.50;99.00;;;;;;4941993;28;20183;-84
2023/07/24 04:23:55;;;;;;;5.07;2.70;;;;;;;;;;4946018;29;20191;-86
2023/07/24 04:26:20;;;;;;;5.85;2.33;;;20.40;99.40;;;;;;4959821;28;20183;-85
2023/07/24 04:28:46;;;;;;;2.95;2.38;;;20.40;99.90;;;;;;4925660;29;20187;-84
2023/07/24 04:31:12;;;;;;;4.32;2.55;;;20.40;99.90;;;;;;4938225;28;20183;-84
2023/07/24 04:33:38;;;;;;;3.85;2.25;;;20.40;99.90;;;;;;4957402;28;20971;-84
2023/07/24 04:36:04;;;;;;;8.60;2.70;;;20.40;99.90;;;;;;4937436;29;20211;-85
2023/07/24 04:38:30;;;;;;;4.25;2.80;;;20.40;99.90;;;;;;4937350;28;20229;-85
2023/07/24 04:40:55;;;;;;;5.63;2.50;;;20.40;99.90;;;;;;4967791;28;20235;-85
2023/07/24 04:43:21;;;;;;;4.93;2.50;;;20.40;99.90;;;;;;4964844;28;20233;-85
2023/07/24 04:45:47;;;;;;;6.30;2.83;;;;;;;;;;4956212;28;20189;-85
2023/07/24 04:48:13;;;;;;;3.70;2.35;;;20.40;99.90;;;;;;4956537;28;20269;-85
2023/07/24 04:50:38;;;;;;;4.53;3.05;;;20.40;99.90;;;;;;4942313;28;20314;-86
2023/07/24 04:53:04;;;;;;;5.63;2.80;;;20.30;99.90;;;;;;4966945;28;20190;-85
2023/07/24 04:55:29;;;;;;;5.45;3.00;;;20.30;99.90;;;;;;4937424;29;20235;-87
2023/07/24 04:57:55;;;;;;;4.50;2.50;;;20.30;99.90;;;;;;4942173;28;20273;-87
2023/07/24 05:00:21;;;;;;;3.65;2.10;;;20.30;99.90;;;;;;4963091;28;20187;-85
2023/07/24 05:02:46;;;;;;;4.05;2.35;;;20.30;99.90;;;;;;4937012;28;20667;-86
2023/07/24 05:05:12;;;;;;;6.93;2.47;;;20.30;99.90;;;;;;4954241;28;20270;-86
2023/07/24 05:07:38;;;;;;;4.28;2.55;;;20.40;99.90;;;;;;4955153;29;20178;-86
2023/07/24 05:10:04;;;;;;;4.38;2.58;;;20.40;99.90;;;;;;4957701;29;20632;-86
2023/07/24 05:12:29;;;;;;;4.10;2.45;;;20.40;99.90;;;;;;4941111;29;20179;-85
2023/07/24 05:14:55;;;;;;;2.90;2.28;;;;;;;;;;4959968;29;20215;-94
2023/07/24 05:17:21;;;;;;;4.55;2.30;;;20.50;99.90;;;;;;4943796;29;20187;-90
2023/07/24 05:19:47;;;;;;;4.70;2.30;;;;;;;;;;4941713;29;20636;-91
2023/07/24 05:22:13;;;;;;;4.07;2.80;;;20.50;99.90;;;;;;4943767;29;20179;-91
2023/07/24 05:24:39;;;;;;;4.53;2.63;;;;;;;;;;4939290;29;20658;-86
2023/07/24 05:27:05;;;;;;;4.32;2.58;;;20.60;99.90;;;;;;4939196;29;20183;-87
2023/07/24 05:29:31;;;;;;;4.72;2.95;;;20.70;99.90;;;;;;4938464;29;20234;-87
2023/07/24 05:31:58;;;;;;;4.40;2.47;;;20.70;99.90;;;;;;4938537;29;20191;-88
2023/07/24 05:34:24;;;;;;;3.72;2.78;;;20.70;99.90;;;;;;4955928;29;20598;-89
2023/07/24 05:36:50;;;;;;;5.30;3.17;;;20.70;99.90;;;;;;4927961;29;20179;-89
2023/07/24 05:39:15;;;;;;;4.22;3.00;;;20.70;99.90;;;;;;4962415;28;20179;-88
2023/07/24 05:41:41;;;;;;;4.30;3.10;;;20.70;99.90;;;;;;4955850;29;20266;-88
2023/07/24 05:44:07;;;;;;;5.82;3.13;;;20.80;99.90;;;;;;4956266;29;20270;-88
2023/07/24 05:46:33;;;;;;;4.72;2.40;;;;;;;;;;4955723;29;20218;-88
2023/07/24 05:49:01;;;;;;;4.22;2.65;;;;;;;;;;4939535;29;20176;-87
2023/07/24 05:51:27;;;;;;;3.53;2.38;;;20.80;99.90;;;;;;4954976;29;20186;-89
2023/07/24 05:53:52;;;;;;;3.90;2.40;;;20.90;99.90;;;;;;4955388;29;20204;-88
2023/07/24 05:56:18;;;;;;;5.20;2.60;;;21.00;99.90;;;;;;4956253;29;20179;-88
2023/07/24 05:58:44;;;;;;;4.90;2.83;;;21.10;99.90;;;;;;4954855;29;20181;-87
2023/07/24 06:01:10;;;;;;;3.95;2.53;;;21.20;99.90;;;;;;4923861;29;20265;-89
2023/07/24 06:03:36;;;;;;;5.10;2.70;;;21.30;99.90;;;;;;4925310;29;20183;-88
2023/07/24 06:06:02;;;;;;;4.15;2.30;;;;;;;;;;4941369;29;20175;-90
2023/07/24 06:08:31;;;;;;;4.60;2.60;;;21.80;99.90;;;;;;4941890;29;20179;-90
2023/07/24 06:10:57;;;;;;;3.83;2.65;;;;;;;;;;4959877;29;20250;-89
2023/07/24 06:13:23;;;;;;;2.88;2.35;;;;;;;;;;4959310;29;20203;-89
2023/07/24 06:15:50;;;;;;;3.97;2.80;;;22.10;99.90;;;;;;4941349;29;20274;-89
2023/07/24 06:18:16;;;;;;;4.13;2.47;;;;;;;;;;4941579;29;20187;-92
2023/07/24 06:20:42;;;;;;;7.35;2.35;;;;;;;;;;4957927;29;20624;-89
2023/07/24 06:23:08;;;;;;;5.10;2.80;;;;;;;;;;4941418;29;20186;-94
2023/07/24 06:25:34;;;;;;;3.75;2.58;;;;;;;;;;4925202;29;20531;-90
2023/07/24 06:28:00;;;;;;;4.82;2.60;;;;;;;;;;4941702;29;20528;-89
2023/07/24 06:30:27;;;;;;;4.55;2.70;;;;;;;;;;4958500;29;20182;-88
2023/07/24 06:32:53;;;;;;;7.50;2.72;;;;;;;;;;4941848;29;20298;-90
2023/07/24 06:35:19;;;;;;;4.40;2.75;;;;;;;;;;4925715;29;20202;-90
2023/07/24 06:37:45;;;;;;;3.78;2.17;;;;;;;;;;4926781;29;20282;-89
2023/07/24 06:40:11;;;;;;;4.70;2.40;;;;;;;;;;4942869;29;20274;-90
2023/07/24 06:42:37;;;;;;;4.22;2.70;;;;;;;;;;4942377;29;20171;-90
2023/07/24 06:45:04;;;;;;;5.30;2.97;;;23.20;94.50;;;;;;4940667;29;20243;-89
2023/07/24 06:47:29;;;;;;;4.40;2.83;;;23.30;95.60;;;;;;4925026;29;20179;-89
2023/07/24 06:49:55;;;;;;;4.18;2.70;;;;;;;;;;4925669;29;20175;-91
2023/07/24 06:52:21;;;;;;;4.78;3.00;;;;;;;;;;4941742;29;20179;-91
2023/07/24 06:54:47;;;;;;;5.78;2.35;;;;;;;;;;4941945;29;20218;-91
2023/07/24 06:57:16;;;;;;;4.68;2.90;;;23.90;91.60;;;;;;4941041;29;20180;-91
2023/07/24 06:59:42;;;;;;;3.17;2.30;;;;;;;;;;4940941;29;20175;-91
2023/07/24 07:02:08;;;;;;;6.38;2.55;;;;;;;;;;4925198;29;20211;-91
2023/07/24 07:04:34;;;;;;;4.75;2.47;;;;;;;;;;4940518;29;20190;-91
2023/07/24 07:07:00;;;;;;;5.30;2.75;;;;;;;;;;4957797;29;20222;-91
2023/07/24 07:09:26;;;;;;;4.75;2.70;;;;;;;;;;4940599;29;20183;-91
2023/07/24 07:11:52;;;;;;;3.60;2.63;;;;;;;;;;4924354;29;20191;-89
2023/07/24 07:14:18;;;;;;;5.28;2.90;;;;;;;;;;4940204;29;20560;-91
2023/07/24 07:16:49;;;;;;;3.22;2.35;;;24.70;84.20;;;;;;4944852;28;20179;-93
2023/07/24 07:19:15;;;;;;;4.18;2.30;;;;;;;;;;4927458;29;20564;-91
2023/07/24 07:21:43;;;;;;;4.40;2.63;;;;;;;;;;4940643;29;20185;-89
2023/07/24 07:24:09;;;;;;;5.68;2.50;;;;;;;;;;4957665;29;20285;-90
2023/07/24 07:26:35;;;;;;;4.32;2.75;;;;;;;;;;4940009;29;20178;-89
2023/07/24 07:29:01;;;;;;;4.65;2.88;;;;;;;;;;4939406;29;20692;-89
2023/07/24 07:31:27;;;;;;;5.75;2.42;;;;;;;;;;4940443;29;20183;-90
2023/07/24 07:33:53;;;;;;;4.22;2.70;;;;;;;;;;4940308;29;20214;-89
2023/07/24 07:36:21;;;;;;;5.22;3.42;;;;;;;;;;4940679;29;20629;-91
2023/07/24 07:38:47;;;;;;;3.60;2.28;;;;;;;;;;4939811;29;20525;-89
2023/07/24 07:41:13;;;;;;;6.43;2.90;;;;;;;;;;4939549;29;20235;-91
2023/07/24 07:43:39;;;;;;;7.20;3.40;;;;;;;;;;4923983;29;20182;-90
2023/07/24 07:46:06;;;;;;;5.50;2.53;;;;;;;;;;4956828;29;20180;-90
2023/07/24 07:48:32;;;;;;;5.75;2.80;;;;;;;;;;4939949;29;20201;-90
2023/07/24 07:50:58;;;;;;;6.85;3.15;;;25.50;78.30;;;;;;4923793;29;20187;-89
2023/07/24 07:53:24;;;;;;;7.78;3.03;;;;;;;;;;4923642;29;20588;-84
2023/07/24 07:55:57;;;;;;;3.28;2.60;;;25.40;78.20;;;;;;4938954;29;20223;-89
2023/07/24 07:58:23;;;;;;;5.93;2.90;;;;;;;;;;4939439;29;20186;-88
2023/07/24 08:00:49;;;;;;;4.60;2.55;;;;;;;;;;4939830;29;20262;-87
2023/07/24 08:03:15;;;;;;;4.85;2.47;;;;;;;;;;4923537;29;20640;-89
2023/07/24 08:05:43;;;;;;;4.40;2.45;;;;;;;;;;4924019;29;20203;-89
2023/07/24 08:08:09;;;;;;;4.28;2.67;;;;;;;;;;4923904;29;20187;-87
2023/07/24 08:10:40;;;;;;;3.83;2.33;;;25.80;73.90;;;;;;4924463;29;20183;-88
2023/07/24 08:13:07;;;;;;;4.57;2.65;;;;;;;;;;4956202;29;20171;-95
2023/07/24 08:15:37;;;;;;;7.22;2.95;;;25.40;79.70;;;;;;4939455;29;20250;-89
2023/07/24 08:18:04;;;;;;;5.63;2.63;;;25.70;74.10;;;;;;4939544;29;20175;-89
2023/07/24 08:20:30;;;;;;;5.82;2.72;;;;;;;;;;4923827;29;20182;-88
2023/07/24 08:22:56;;;;;;;3.20;2.22;;;25.60;70.60;;;;;;4939445;29;20190;-93
2023/07/24 08:25:22;;;;;;;6.00;2.92;;;;;;;;;;4925011;29;20187;-90
2023/07/24 08:27:48;;;;;;;6.22;2.60;;;;;;;;;;4957439;29;20175;-88
2023/07/24 08:30:14;;;;;;;3.53;2.45;;;;;;;;;;4939360;29;20650;-92
2023/07/24 08:32:40;;;;;;;4.10;2.75;;;25.60;71.60;;;;;;4956873;29;20175;-92
2023/07/24 08:35:06;;;;;;;5.43;2.90;;;25.70;73.40;;;;;;4939610;29;20245;-90
2023/07/24 08:37:32;;;;;;;4.63;2.63;;;;;;;;;;4939301;29;20551;-89
2023/07/24 08:39:58;;;;;;;4.20;2.63;;;;;;;;;;4923300;29;20226;-92
2023/07/24 08:42:25;;;;;;;4.22;2.58;;;26.20;70.10;;;;;;4956336;29;20192;-90
2023/07/24 08:44:52;;;;;;;5.47;3.20;;;26.30;69.60;;;;;;4939495;29;20270;-93
2023/07/24 08:47:19;;;;;;;4.72;2.83;;;;;;;;;;4939826;29;20183;-93
2023/07/24 08:49:47;;;;;;;5.82;2.78;;;26.30;67.10;;;;;;4939417;29;20179;-90
2023/07/24 08:52:13;;;;;;;4.63;2.63;;;26.30;66.70;;;;;;4956145;29;20621;-92
2023/07/24 08:54:40;;;;;;;5.18;2.83;;;;;;;;;;4956975;29;20242;-91
2023/07/24 08:57:09;;;;;;;5.30;2.90;;;26.20;68.50;;;;;;4938884;29;20210;-92
2023/07/24 08:59:35;;;;;;;4.68;3.00;;;;;;;;;;4923263;29;20187;-93
2023/07/24 09:02:01;;;;;;;4.03;2.80;;;;;;;;;;4956686;29;20174;-92
2023/07/24 09:04:27;;;;;;;5.35;2.90;;;;;;;;;;4939832;29;20182;-90
2023/07/24 09:06:54;;;;;;;4.32;2.85;;;;;;;;;;4924241;29;20187;-92
2023/07/24 09:09:19;;;;;;;2.95;2.25;;;25.90;68.00;;;;;;4957808;29;20171;-90
2023/07/24 09:11:48;;;;;;;2.80;2.25;;;25.80;68.20;;;;;;4942242;29;20184;-91
2023/07/24 09:14:27;;;;;;;5.20;2.70;;;26.00;70.80;;;;;;4940875;29;20212;-90
2023/07/24 09:17:04;;;;;;;4.55;2.65;;;26.20;67.90;;;;;;4939212;29;20214;-93
2023/07/24 09:19:30;;;;;;;4.72;3.00;;;;;;;;;;4940429;29;20175;-94
2023/07/24 09:21:56;;;;;;;4.78;3.08;;;;;;;;;;4940185;29;20179;-93
2023/07/24 09:24:22;;;;;;;3.63;2.55;;;;;;;;;;4939558;29;20655;-93
2023/07/24 09:26:52;;;;;;;3.42;2.55;;;27.30;72.20;;;;;;4959216;29;20186;-93
2023/07/24 09:29:19;;;;;;;3.50;2.88;;;26.90;65.80;;;;;;4958900;29;20174;-94
2023/07/24 09:31:45;;;;;;;7.05;2.95;;;;;;;;;;4952458;28;20253;-94
2023/07/24 09:34:19;;;;;;;4.68;2.90;;;26.70;66.30;;;;;;4962898;28;20270;-93
2023/07/24 09:36:45;;;;;;;4.07;2.67;;;;;;;;;;4965303;28;20195;-92
2023/07/24 09:39:11;;;;;;;5.13;3.03;;;;;;;;;;4966336;29;20175;-93
2023/07/24 09:41:40;;;;;;;3.75;2.47;;;27.00;62.90;;;;;;4962365;29;20239;-95
2023/07/24 09:44:07;;;;;;;3.92;2.47;;;27.00;60.00;;;;;;4971768;29;20183;-94
2023/07/24 09:46:33;;;;;;;7.53;3.10;;;;;;;;;;4962917;29;20163;-90
2023/07/24 09:49:00;;;;;;;4.22;2.75;;;27.10;62.10;;;;;;4965714;28;20195;-94
2023/07/24 09:51:26;;;;;;;5.03;2.72;;;;;;;;;;4961914;29;20210;-94
2023/07/24 09:53:58;;;;;;;4.50;2.38;;;27.40;63.00;;;;;;4948782;29;20633;-94
2023/07/24 09:56:24;;;;;;;5.22;3.30;;;;;;;;;;4947539;29;20266;-95
2023/07/24 09:58:54;;;;;;;3.95;3.10;;;;;;;;;;4945783;29;20238;-96
2023/07/24 10:01:20;;;;;;;5.47;2.53;;;;;;;;;;4946228;29;20206;-93
2023/07/24 10:03:50;;;;;;;3.88;2.65;;;27.80;62.50;;;;;;4963488;29;20179;-96
2023/07/24 10:06:16;;;;;;;4.47;2.85;;;;;;;;;;4960797;29;20179;-94
2023/07/24 10:08:43;;;;;;;4.10;2.85;;;;;;;;;;4943905;29;20183;-94
2023/07/24 10:11:14;;;;;;;4.20;2.97;;;27.80;63.80;;;;;;4942856;29;20691;-93
2023/07/24 10:13:43;;;;;;;4.25;3.05;;;27.80;66.20;;;;;;4926579;29;20234;-95
2023/07/24 10:16:11;;;;;;;8.85;3.53;;;28.20;65.00;;;;;;4929455;29;20191;-96
2023/07/24 10:18:45;;;;;;;4.75;3.08;;;28.20;64.80;;;;;;4968383;29;20234;-95
2023/07/24 10:21:11;;;;;;;5.20;2.65;;;;;;;;;;4953045;29;20198;-94
2023/07/24 10:23:42;;;;;;;9.18;3.47;;;28.30;66.00;;;;;;4947247;29;20206;-96
2023/07/24 10:26:10;;;;;;;8.70;5.30;;;28.50;66.50;;;;;;4949930;29;20175;-96
2023/07/24 10:28:38;;;;;;;4.07;3.25;;;28.60;63.20;;;;;;4951555;29;20254;-93
2023/07/24 10:31:19;;;;;;;5.57;3.08;;;28.60;62.50;;;;;;4947303;29;20617;-95
2023/07/24 10:33:45;;;;;;;4.40;2.97;;;28.50;62.80;;;;;;4943712;29;20179;-93
2023/07/24 10:36:13;;;;;;;4.88;3.28;;;;;;;;;;4942719;29;20179;-93
2023/07/24 10:38:43;;;;;;;8.98;3.33;;;28.40;64.10;;;;;;4943008;29;20175;-93
2023/07/24 10:41:10;;;;;;;5.35;3.20;;;28.30;65.30;;;;;;4941960;29;20227;-95
2023/07/24 10:43:52;;;;;;;4.93;2.97;;;28.30;64.00;;;;;;4952449;29;20593;-95
2023/07/24 10:46:23;;;;;;;5.93;2.92;;;28.10;63.60;;;;;;4951833;28;20186;-94
2023/07/24 10:48:50;;;;;;;4.53;3.35;;;28.00;64.70;;;;;;4971161;28;20187;-95
2023/07/24 10:51:17;;;;;;;5.53;3.13;;;;;;;;;;4950028;29;20260;-95
2023/07/24 10:53:49;;;;;;;4.88;3.17;;;27.90;66.60;;;;;;4959687;29;20171;-93
2023/07/24 10:56:16;;;;;;;4.68;3.22;;;28.10;66.00;;;;;;4942142;29;20171;-91
2023/07/24 10:58:42;;;;;;;5.85;2.83;;;;;;;;;;4945727;29;20183;-91
2023/07/24 11:01:10;;;;;;;4.82;3.10;;;;;;;;;;4933116;29;20198;-90
2023/07/24 11:03:37;;;;;;;4.57;2.75;;;28.20;65.60;;;;;;4926026;29;20234;-89
2023/07/24 11:06:03;;;;;;;4.53;2.78;;;28.20;66.30;;;;;;4924624;29;20183;-94
2023/07/24 11:08:29;;;;;;;4.57;2.42;;;28.10;66.00;;;;;;4940628;29;20183;-91
2023/07/24 11:10:57;;;;;;;4.97;3.03;;;28.20;65.30;;;;;;4940681;29;20191;-92
2023/07/24 11:13:25;;;;;;;3.92;2.90;;;28.20;66.00;;;;;;4924544;29;20183;-91
2023/07/24 11:15:52;;;;;;;6.43;3.15;;;28.20;67.30;;;;;;4940964;29;20210;-91
2023/07/24 11:18:20;;;;;;;6.15;3.35;;;28.10;67.00;;;;;;4940627;29;20186;-90
2023/07/24 11:20:50;;;;;;;5.18;3.42;;;27.90;66.40;;;;;;4940404;29;20175;-91
2023/07/24 11:23:16;;;;;;;5.13;2.72;;;27.90;67.20;;;;;;4940008;29;20186;-91
2023/07/24 11:25:42;;;;;;;5.63;3.38;;;27.70;67.50;;;;;;4957673;29;20179;-91
2023/07/24 11:28:12;;;;;;;5.93;3.65;;;27.60;68.60;;;;;;4957325;29;20175;-90
2023/07/24 11:30:38;;;;;;;4.55;3.30;;;;;;;;;;4958032;29;20176;-90
2023/07/24 11:33:07;;;;;;;4.68;3.05;;;27.60;69.20;;;;;;4940756;29;20201;-91
2023/07/24 11:35:33;;;;;;;4.50;3.35;;;;;;;;;;4940213;29;20672;-91
2023/07/24 11:37:59;;;;;;;5.07;3.25;;;;;;;;;;4957156;29;20207;-88
2023/07/24 11:40:46;;;;;;;4.80;3.08;;;27.60;71.00;;;;;;4939929;29;20229;-90
2023/07/24 11:43:20;;;;;;;4.45;3.33;;;27.50;71.20;;;;;;4940065;29;20175;-90
2023/07/24 11:45:48;;;;;;;4.05;3.17;;;;;;;;;;4939625;29;20269;-90
2023/07/24 11:48:15;;;;;;;10.05;3.70;;;27.30;72.20;;;;;;4939672;29;20274;-89
2023/07/24 11:50:48;;;;;;;4.63;2.85;;;27.30;74.30;;;;;;4939765;29;20222;-89
2023/07/24 11:53:33;;;;;;;6.30;3.53;;;27.30;75.00;;;;;;4958591;29;20194;-89
2023/07/24 11:59:42;;;;;;;5.40;3.35;;;27.30;74.10;;;;;;4957306;28;20172;-87
2023/07/24 12:02:47;;;;;;;8.75;3.40;;;27.30;78.70;;;;;;4926165;29;20218;-90
2023/07/24 12:05:13;;;;;;;4.50;3.35;;;;;;;;;;4942068;29;20719;-88
2023/07/24 12:07:41;;;;;;;7.07;3.75;;;;;;;;;;4957183;29;20151;-88
2023/07/24 12:10:12;;;;;;;4.15;3.00;;;27.60;73.30;;;;;;4940375;29;20643;-89
2023/07/24 12:12:47;;;;;;;5.75;3.65;;;26.20;73.30;;;;;;4923991;29;20183;-89
2023/07/24 12:15:14;;;;;;;4.35;2.90;;;27.70;70.60;;;;;;4923990;29;20210;-89
2023/07/24 12:17:43;;;;;;;6.40;3.80;;;;;;;;;;4956581;29;20175;-89
2023/07/24 12:20:10;;;;;;;6.85;3.28;;;;;;;;;;4923818;29;20598;-88
2023/07/24 12:22:37;;;;;;;4.20;3.08;;;28.20;69.80;;;;;;4923606;29;20214;-88
2023/07/24 12:25:04;;;;;;;8.32;4.00;;;28.50;69.00;;;;;;4944244;29;20175;-89
2023/07/24 12:27:30;;;;;;;5.53;3.17;;;;;;;;;;4939485;29;20183;-89
2023/07/24 12:29:56;;;;;;;4.70;2.70;;;;;;;;;;4956841;29;20671;-88
2023/07/24 12:32:22;;;;;;;9.00;3.55;;;;;;;;;;4939166;29;20246;-89
2023/07/24 12:34:50;;;;;;;4.55;3.05;;;29.00;65.00;;;;;;4956193;29;20233;-89
2023/07/24 12:37:16;;;;;;;7.35;3.67;;;;;;;;;;4940043;29;20187;-90
2023/07/24 12:39:42;;;;;;;6.93;2.78;;;;;;;;;;4939533;29;20175;-89
2023/07/24 12:42:08;;;;;;;3.90;2.75;;;;;;;;;;4924569;29;20218;-91
2023/07/24 12:44:34;;;;;;;4.85;2.92;;;;;;;;;;4923366;29;20187;-90
2023/07/24 12:47:00;;;;;;;4.30;3.03;;;;;;;;;;4939184;29;20242;-88
2023/07/24 12:49:28;;;;;;;4.28;2.88;;;29.70;59.00;;;;;;4939284;29;20195;-89
2023/07/24 12:51:54;;;;;;;3.58;2.40;;;;;;;;;;4939170;29;20596;-89
2023/07/24 12:54:21;;;;;;;5.45;2.97;;;;;;;;;;4923158;29;20218;-89
2023/07/24 12:56:47;;;;;;;4.05;2.88;;;;;;;;;;4923423;29;20179;-89
2023/07/24 12:59:18;;;;;;;3.13;2.50;;;29.80;60.00;;;;;;4939043;29;20281;-90
2023/07/24 13:01:47;;;;;;;5.13;3.00;;;;;;;;;;4940060;29;20215;-90
2023/07/24 13:04:13;;;;;;;5.80;3.17;;;;;;;;;;4940324;29;20283;-91
2023/07/24 13:06:44;;;;;;;3.38;2.75;;;29.70;61.70;;;;;;4959170;29;20167;-91
2023/07/24 13:09:10;;;;;;;4.65;3.33;;;;;;;;;;4924140;29;20183;-90
2023/07/24 13:11:36;;;;;;;6.15;3.10;;;;;;;;;;4938716;29;20179;-88
2023/07/24 13:14:02;;;;;;;5.18;3.10;;;;;;;;;;4939983;29;20177;-90
2023/07/24 13:16:28;;;;;;;5.85;4.13;;;;;;;;;;4938830;29;20186;-89
2023/07/24 13:18:55;;;;;;;6.78;3.42;;;;;;;;;;4939550;29;20206;-89
2023/07/24 13:21:21;;;;;;;6.90;3.47;;;;;;;;;;4939634;29;20647;-90
2023/07/24 13:23:47;;;;;;;4.50;2.95;;;;;;;;;;4958938;29;20198;-89
2023/07/24 13:26:14;;;;;;;5.47;2.97;;;;;;;;;;4939318;29;20191;-90
2023/07/24 13:28:42;;;;;;;4.40;3.00;;;29.70;58.20;;;;;;4940049;29;20183;-89
2023/07/24 13:31:15;;;;;;;5.05;3.30;;;29.70;59.50;;;;;;4923320;29;20182;-89